createdAt,value
2023-06-19T00:00:12.864Z,99164.75
2023-06-19T00:01:14.463Z,99163.59
2023-06-19T00:02:16.244Z,99165.00
2023-06-19T00:03:17.935Z,99168.19
2023-06-19T00:04:19.679Z,99169.97
2023-06-19T00:05:21.322Z,99167.59
2023-06-19T00:06:22.905Z,99172.56
2023-06-19T00:07:24.490Z,99171.09
2023-06-19T00:08:26.121Z,99170.09
2023-06-19T00:09:27.756Z,99171.19
2023-06-19T00:10:29.434Z,99167.38
2023-06-19T00:11:31.236Z,99165.53
2023-06-19T00:12:33.443Z,99168.19
2023-06-19T00:13:35.037Z,99172.69
2023-06-19T00:14:37.663Z,99164.50
2023-06-19T00:15:39.347Z,99170.66
2023-06-19T00:16:41.059Z,99166.84
2023-06-19T00:17:42.864Z,99170.59
2023-06-19T00:18:44.633Z,99172.16
2023-06-19T00:19:46.204Z,99173.22
2023-06-19T00:20:48.024Z,99175.41
2023-06-19T00:21:49.813Z,99177.06
2023-06-19T00:22:51.515Z,99178.22
2023-06-19T00:23:53.878Z,99176.56
2023-06-19T00:24:55.424Z,99172.91
2023-06-19T00:25:56.971Z,99169.25
2023-06-19T00:26:58.547Z,99176.25
2023-06-19T00:28:00.322Z,99181.56
2023-06-19T00:29:01.963Z,99171.44
2023-06-19T00:30:06.747Z,99178.94
2023-06-19T00:31:08.321Z,99175.66
2023-06-19T00:32:09.950Z,99171.97
2023-06-19T00:33:11.571Z,99169.97
2023-06-19T00:34:13.161Z,99173.91
2023-06-19T00:35:15.983Z,99165.94
2023-06-19T00:36:17.987Z,99171.09
2023-06-19T00:37:20.633Z,99169.25
2023-06-19T00:38:22.341Z,99166.25
2023-06-19T00:39:27.081Z,99164.41
2023-06-19T00:40:31.251Z,99168.06
2023-06-19T00:41:33.626Z,99167.91
2023-06-19T00:42:35.231Z,99167.91
2023-06-19T00:43:36.837Z,99167.91
2023-06-19T00:44:38.564Z,99160.44
2023-06-19T00:45:40.212Z,99163.47
2023-06-19T00:46:42.157Z,99162.00
2023-06-19T00:47:44.078Z,99161.69
2023-06-19T00:48:45.788Z,99158.22
2023-06-19T00:49:47.854Z,99156.56
2023-06-19T00:50:50.794Z,99159.22
2023-06-19T00:51:53.468Z,99160.38
2023-06-19T00:52:55.219Z,99155.59
2023-06-19T00:53:57.027Z,99152.47
2023-06-19T00:54:58.741Z,99154.47
2023-06-19T00:56:01.714Z,99151.81
2023-06-19T00:57:03.786Z,99151.81
2023-06-19T00:58:06.741Z,99158.13
2023-06-19T00:59:16.447Z,99157.31
2023-06-19T01:00:18.574Z,99161.13
2023-06-19T01:01:21.957Z,99162.38
2023-06-19T01:02:23.993Z,99159.03
2023-06-19T01:03:25.752Z,99156.09
2023-06-19T01:04:27.646Z,99161.56
2023-06-19T01:05:31.792Z,99157.63
2023-06-19T01:06:57.917Z,99155.97
2023-06-19T01:08:25.437Z,99160.78
2023-06-19T01:09:38.132Z,99153.81
2023-06-19T01:10:44.306Z,99162.63
2023-06-19T01:11:51.223Z,99158.97
2023-06-19T01:13:40.488Z,99159.63
2023-06-19T01:15:03.306Z,99152.66
2023-06-19T01:16:06.191Z,99150.81
2023-06-19T01:17:11.653Z,99153.47
2023-06-19T01:18:13.870Z,99161.94
2023-06-19T01:19:20.736Z,99161.94
2023-06-19T01:20:22.700Z,99161.03
2023-06-19T01:21:24.714Z,99167.22
2023-06-19T01:22:29.093Z,99169.59
2023-06-19T01:23:33.916Z,99162.16
2023-06-19T01:24:36.294Z,99164.69
2023-06-19T01:25:38.856Z,99161.41
2023-06-19T01:26:41.992Z,99169.34
2023-06-19T01:27:43.904Z,99167.06
2023-06-19T01:28:46.750Z,99166.41
2023-06-19T01:29:48.687Z,99163.78
2023-06-19T01:30:50.725Z,99161.78
2023-06-19T01:32:06.806Z,99161.94
2023-06-19T01:33:21.558Z,99164.41
2023-06-19T01:34:26.266Z,99162.75
2023-06-19T01:35:30.708Z,99154.78
2023-06-19T01:36:33.865Z,99151.97
2023-06-19T01:37:36.089Z,99157.06
2023-06-19T01:38:41.797Z,99160.53
2023-06-19T01:39:45.999Z,99160.66
2023-06-19T01:40:50.537Z,99157.34
2023-06-19T01:41:54.026Z,99157.31
2023-06-19T01:42:56.429Z,99155.13
2023-06-19T01:43:59.094Z,99152.78
2023-06-19T01:45:00.827Z,99153.44
2023-06-19T01:46:02.588Z,99162.22
2023-06-19T01:47:13.910Z,99154.94
2023-06-19T01:48:17.654Z,99150.44
2023-06-19T01:49:21.382Z,99147.91
2023-06-19T01:50:24.482Z,99152.41
2023-06-19T01:51:26.582Z,99154.06
2023-06-19T01:52:28.186Z,99152.22
2023-06-19T01:53:31.693Z,99157.53
2023-06-19T01:54:33.390Z,99157.06
2023-06-19T01:55:35.042Z,99155.38
2023-06-19T01:56:37.791Z,99165.56
2023-06-19T01:57:39.458Z,99160.69
2023-06-19T01:58:41.040Z,99161.69
2023-06-19T01:59:42.668Z,99166.44
2023-06-19T02:00:44.312Z,99166.81
2023-06-19T02:01:46.001Z,99167.53
2023-06-19T02:02:47.693Z,99165.19
2023-06-19T02:03:49.515Z,99166.09
2023-06-19T02:04:51.265Z,99170.53
2023-06-19T02:05:52.866Z,99165.91
2023-06-19T02:06:55.473Z,99163.94
2023-06-19T02:07:57.557Z,99162.28
2023-06-19T02:08:59.254Z,99167.91
2023-06-19T02:10:01.176Z,99165.91
2023-06-19T02:11:02.827Z,99172.88
2023-06-19T02:12:06.799Z,99167.72
2023-06-19T02:13:08.556Z,99171.56
2023-06-19T02:14:10.746Z,99169.22
2023-06-19T02:15:12.402Z,99166.75
2023-06-19T02:16:14.884Z,99164.41
2023-06-19T02:17:16.577Z,99164.59
2023-06-19T02:18:18.264Z,99166.91
2023-06-19T02:19:20.120Z,99165.59
2023-06-19T02:20:23.084Z,99162.94
2023-06-19T02:21:25.058Z,99166.09
2023-06-19T02:22:27.100Z,99163.09
2023-06-19T02:23:29.383Z,99166.44
2023-06-19T02:24:31.054Z,99162.75
2023-06-19T02:25:32.655Z,99161.28
2023-06-19T02:26:34.600Z,99154.81
2023-06-19T02:27:36.198Z,99155.94
2023-06-19T02:28:37.837Z,99157.78
2023-06-19T02:29:40.647Z,99161.94
2023-06-19T02:30:42.296Z,99163.78
2023-06-19T02:31:45.071Z,99159.16
2023-06-19T02:32:46.734Z,99161.97
2023-06-19T02:33:48.360Z,99161.28
2023-06-19T02:34:49.958Z,99162.94
2023-06-19T02:35:51.532Z,99156.63
2023-06-19T02:36:53.128Z,99160.78
2023-06-19T02:37:54.724Z,99162.59
2023-06-19T02:38:56.320Z,99169.56
2023-06-19T02:39:57.892Z,99164.09
2023-06-19T02:40:59.428Z,99164.75
2023-06-19T02:42:01.591Z,99161.94
2023-06-19T02:43:03.800Z,99160.59
2023-06-19T02:44:05.391Z,99156.63
2023-06-19T02:45:07.528Z,99163.09
2023-06-19T02:46:12.209Z,99165.59
2023-06-19T02:47:16.400Z,99167.91
2023-06-19T02:48:17.983Z,99164.78
2023-06-19T02:49:19.657Z,99167.06
2023-06-19T02:50:21.634Z,99166.94
2023-06-19T02:51:23.531Z,99167.72
2023-06-19T02:52:25.525Z,99168.09
2023-06-19T02:53:27.147Z,99166.41
2023-06-19T02:54:28.775Z,99168.06
2023-06-19T02:55:30.381Z,99165.91
2023-06-19T02:56:32.053Z,99172.69
2023-06-19T02:57:33.979Z,99167.25
2023-06-19T02:58:35.612Z,99171.22
2023-06-19T02:59:37.294Z,99168.88
2023-06-19T03:00:38.896Z,99173.06
2023-06-19T03:01:40.594Z,99175.69
2023-06-19T03:02:42.359Z,99170.88
2023-06-19T03:03:44.211Z,99170.72
2023-06-19T03:04:47.019Z,99174.84
2023-06-19T03:05:48.623Z,99170.56
2023-06-19T03:06:50.656Z,99171.19
2023-06-19T03:07:52.254Z,99176.66
2023-06-19T03:08:53.889Z,99165.38
2023-06-19T03:09:55.786Z,99171.84
2023-06-19T03:10:57.454Z,99175.63
2023-06-19T03:11:59.701Z,99172.63
2023-06-19T03:13:01.510Z,99167.66
2023-06-19T03:14:03.139Z,99181.09
2023-06-19T03:15:05.321Z,99175.25
2023-06-19T03:16:08.806Z,99173.78
2023-06-19T03:17:10.931Z,99171.81
2023-06-19T03:18:12.726Z,99177.78
2023-06-19T03:19:15.116Z,99174.41
2023-06-19T03:20:16.745Z,99169.44
2023-06-19T03:21:25.462Z,99170.41
2023-06-19T03:22:27.423Z,99180.34
2023-06-19T03:23:29.211Z,99178.81
2023-06-19T03:24:30.837Z,99165.84
2023-06-19T03:25:45.826Z,99163.69
2023-06-19T03:26:47.562Z,99170.28
2023-06-19T03:27:49.432Z,99162.81
2023-06-19T03:28:51.232Z,99170.41
2023-06-19T03:29:54.435Z,99165.41
2023-06-19T03:31:04.041Z,99168.38
2023-06-19T03:32:06.190Z,99166.88
2023-06-19T03:33:09.103Z,99167.09
2023-06-19T03:34:18.328Z,99169.88
2023-06-19T03:35:20.002Z,99169.16
2023-06-19T03:36:22.046Z,99173.00
2023-06-19T03:37:25.286Z,99171.50
2023-06-19T03:38:27.721Z,99170.56
2023-06-19T03:39:29.740Z,99175.50
2023-06-19T03:40:38.054Z,99171.38
2023-06-19T03:41:45.249Z,99170.38
2023-06-19T03:42:46.893Z,99175.00
2023-06-19T03:43:49.460Z,99170.84
2023-06-19T03:44:51.961Z,99173.66
2023-06-19T03:45:53.555Z,99172.19
2023-06-19T03:46:55.842Z,99176.50
2023-06-19T03:47:57.549Z,99169.38
2023-06-19T03:48:59.191Z,99176.00
2023-06-19T03:50:15.767Z,99181.16
2023-06-19T03:51:23.131Z,99175.19
2023-06-19T03:52:25.376Z,99183.47
2023-06-19T03:53:26.994Z,99183.16
2023-06-19T03:54:29.385Z,99180.34
2023-06-19T03:55:31.067Z,99180.16
2023-06-19T03:56:33.012Z,99181.66
2023-06-19T03:57:34.622Z,99174.03
2023-06-19T03:58:36.234Z,99177.34
2023-06-19T03:59:37.934Z,99176.97
2023-06-19T04:00:39.567Z,99182.81
2023-06-19T04:01:41.237Z,99174.19
2023-06-19T04:02:42.899Z,99178.50
2023-06-19T04:03:44.618Z,99173.88
2023-06-19T04:04:46.271Z,99181.00
2023-06-19T04:05:47.955Z,99181.16
2023-06-19T04:06:49.575Z,99182.31
2023-06-19T04:07:51.436Z,99183.81
2023-06-19T04:08:53.214Z,99184.50
2023-06-19T04:09:55.350Z,99184.13
2023-06-19T04:10:56.990Z,99179.34
2023-06-19T04:11:58.620Z,99181.31
2023-06-19T04:13:00.337Z,99183.47
2023-06-19T04:14:02.082Z,99181.16
2023-06-19T04:15:05.648Z,99189.63
2023-06-19T04:16:08.803Z,99186.16
2023-06-19T04:17:10.539Z,99184.31
2023-06-19T04:18:12.229Z,99182.31
2023-06-19T04:19:14.040Z,99178.16
2023-06-19T04:20:15.934Z,99184.78
2023-06-19T04:21:17.562Z,99185.31
2023-06-19T04:22:19.168Z,99177.16
2023-06-19T04:23:20.781Z,99179.13
2023-06-19T04:24:22.453Z,99174.63
2023-06-19T04:25:24.110Z,99176.78
2023-06-19T04:26:26.091Z,99177.44
2023-06-19T04:27:27.679Z,99178.06
2023-06-19T04:28:29.266Z,99174.25
2023-06-19T04:29:30.901Z,99174.41
2023-06-19T04:30:32.610Z,99182.38
2023-06-19T04:31:34.536Z,99179.22
2023-06-19T04:32:36.489Z,99179.06
2023-06-19T04:33:38.559Z,99179.00
2023-06-19T04:34:40.294Z,99179.69
2023-06-19T04:35:41.926Z,99179.34
2023-06-19T04:36:43.751Z,99173.38
2023-06-19T04:37:45.344Z,99178.50
2023-06-19T04:38:46.982Z,99173.50
2023-06-19T04:39:48.662Z,99177.47
2023-06-19T04:40:53.571Z,99163.84
2023-06-19T04:41:55.154Z,99170.00
2023-06-19T04:42:56.737Z,99166.97
2023-06-19T04:43:58.284Z,99170.28
2023-06-19T04:44:59.912Z,99168.63
2023-06-19T04:46:01.648Z,99173.59
2023-06-19T04:47:03.331Z,99177.38
2023-06-19T04:48:05.402Z,99172.41
2023-06-19T04:49:07.277Z,99172.94
2023-06-19T04:50:09.140Z,99182.91
2023-06-19T04:51:10.765Z,99167.81
2023-06-19T04:52:12.491Z,99171.47
2023-06-19T04:53:14.050Z,99166.34
2023-06-19T04:54:15.747Z,99167.28
2023-06-19T04:55:17.426Z,99167.56
2023-06-19T04:56:19.066Z,99167.69
2023-06-19T04:57:20.683Z,99167.81
2023-06-19T04:58:23.052Z,99169.09
2023-06-19T04:59:24.707Z,99171.91
2023-06-19T05:00:26.589Z,99171.75
2023-06-19T05:01:28.437Z,99179.88
2023-06-19T05:02:30.065Z,99182.91
2023-06-19T05:03:31.674Z,99189.34
2023-06-19T05:04:33.337Z,99182.13
2023-06-19T05:05:35.058Z,99184.53
2023-06-19T05:06:36.909Z,99186.69
2023-06-19T05:07:38.613Z,99190.50
2023-06-19T05:08:40.197Z,99185.91
2023-06-19T05:09:41.845Z,99183.09
2023-06-19T05:10:46.250Z,99187.53
2023-06-19T05:11:48.577Z,99180.94
2023-06-19T05:12:50.188Z,99182.69
2023-06-19T05:13:51.945Z,99178.88
2023-06-19T05:14:53.567Z,99177.31
2023-06-19T05:15:55.222Z,99178.91
2023-06-19T05:16:56.829Z,99178.00
2023-06-19T05:17:58.511Z,99183.91
2023-06-19T05:19:00.229Z,99181.78
2023-06-19T05:20:01.823Z,99192.41
2023-06-19T05:21:03.645Z,99189.72
2023-06-19T05:22:05.583Z,99185.13
2023-06-19T05:23:07.189Z,99191.56
2023-06-19T05:24:08.801Z,99182.94
2023-06-19T05:25:10.725Z,99193.94
2023-06-19T05:26:12.552Z,99189.69
2023-06-19T05:27:14.311Z,99191.34
2023-06-19T05:28:15.940Z,99191.03
2023-06-19T05:29:17.619Z,99186.63
2023-06-19T05:30:19.347Z,99188.34
2023-06-19T05:31:20.903Z,99186.94
2023-06-19T05:32:22.521Z,99186.06
2023-06-19T05:33:24.134Z,99189.13
2023-06-19T05:34:25.780Z,99176.25
2023-06-19T05:35:27.438Z,99185.22
2023-06-19T05:36:29.034Z,99181.28
2023-06-19T05:37:30.657Z,99190.41
2023-06-19T05:38:32.391Z,99190.47
2023-06-19T05:39:34.016Z,99190.56
2023-06-19T05:40:35.634Z,99189.38
2023-06-19T05:41:37.377Z,99188.81
2023-06-19T05:42:39.097Z,99193.19
2023-06-19T05:43:40.729Z,99196.09
2023-06-19T05:44:42.287Z,99197.38
2023-06-19T05:45:43.936Z,99196.38
2023-06-19T05:46:45.571Z,99199.41
2023-06-19T05:47:47.206Z,99201.94
2023-06-19T05:48:48.917Z,99207.72
2023-06-19T05:49:50.555Z,99203.22
2023-06-19T05:50:52.603Z,99207.66
2023-06-19T05:51:54.279Z,99213.84
2023-06-19T05:52:55.867Z,99216.97
2023-06-19T05:53:57.508Z,99210.28
2023-06-19T05:54:59.189Z,99209.72
2023-06-19T05:56:00.986Z,99216.97
2023-06-19T05:57:02.576Z,99209.84
2023-06-19T05:58:04.208Z,99215.00
2023-06-19T05:59:06.030Z,99217.28
2023-06-19T06:00:08.198Z,99217.09
2023-06-19T06:01:14.465Z,99210.53
2023-06-19T06:02:16.138Z,99205.00
2023-06-19T06:03:17.727Z,99210.41
2023-06-19T06:04:19.369Z,99203.84
2023-06-19T06:05:20.993Z,99211.03
2023-06-19T06:06:24.362Z,99207.94
2023-06-19T06:07:25.944Z,99203.63
2023-06-19T06:08:27.503Z,99211.03
2023-06-19T06:09:29.090Z,99204.66
2023-06-19T06:10:30.701Z,99216.78
2023-06-19T06:11:32.332Z,99215.31
2023-06-19T06:12:36.767Z,99218.84
2023-06-19T06:13:38.403Z,99218.25
2023-06-19T06:14:41.710Z,99219.28
2023-06-19T06:15:43.286Z,99218.44
2023-06-19T06:16:45.072Z,99224.41
2023-06-19T06:17:46.753Z,99222.13
2023-06-19T06:18:48.368Z,99231.22
2023-06-19T06:19:50.000Z,99228.97
2023-06-19T06:20:51.593Z,99224.63
2023-06-19T06:21:53.183Z,99225.22
2023-06-19T06:22:54.810Z,99226.63
2023-06-19T06:23:56.462Z,99230.75
2023-06-19T06:24:58.056Z,99235.50
2023-06-19T06:25:59.680Z,99234.28
2023-06-19T06:27:01.274Z,99235.09
2023-06-19T06:28:02.901Z,99231.66
2023-06-19T06:29:04.505Z,99229.78
2023-06-19T06:30:06.760Z,99228.16
2023-06-19T06:31:08.375Z,99222.19
2023-06-19T06:32:10.399Z,99224.72
2023-06-19T06:33:12.157Z,99227.38
2023-06-19T06:34:14.283Z,99220.78
2023-06-19T06:35:16.737Z,99225.72
2023-06-19T06:36:29.734Z,99228.81
2023-06-19T06:37:36.860Z,99229.22
2023-06-19T06:38:38.457Z,99230.03
2023-06-19T06:39:40.125Z,99230.22
2023-06-19T06:40:41.691Z,99226.91
2023-06-19T06:41:43.272Z,99234.06
2023-06-19T06:42:47.746Z,99233.66
2023-06-19T06:43:49.328Z,99239.44
2023-06-19T06:44:50.903Z,99237.97
2023-06-19T06:45:52.555Z,99233.78
2023-06-19T06:46:54.177Z,99235.41
2023-06-19T06:47:56.110Z,99237.44
2023-06-19T06:48:57.781Z,99242.16
2023-06-19T06:49:59.521Z,99245.25
2023-06-19T06:51:01.121Z,99243.09
2023-06-19T06:52:06.205Z,99241.41
2023-06-19T06:53:07.829Z,99239.91
2023-06-19T06:54:09.409Z,99239.47
2023-06-19T06:55:11.120Z,99241.06
2023-06-19T06:56:12.785Z,99243.84
2023-06-19T06:57:14.713Z,99241.72
2023-06-19T06:58:16.870Z,99248.19
2023-06-19T06:59:18.423Z,99244.44
2023-06-19T07:00:20.392Z,99248.72
2023-06-19T07:01:22.100Z,99250.75
2023-06-19T07:02:23.787Z,99239.94
2023-06-19T07:03:25.653Z,99252.53
2023-06-19T07:04:27.354Z,99252.91
2023-06-19T07:05:28.966Z,99254.94
2023-06-19T07:06:32.706Z,99250.53
2023-06-19T07:07:34.281Z,99254.50
2023-06-19T07:08:35.907Z,99251.97
2023-06-19T07:09:37.465Z,99254.84
2023-06-19T07:10:39.121Z,99256.72
2023-06-19T07:11:40.752Z,99254.94
2023-06-19T07:12:49.043Z,99253.50
2023-06-19T07:13:50.888Z,99262.22
2023-06-19T07:14:55.420Z,99252.78
2023-06-19T07:15:57.012Z,99262.88
2023-06-19T07:16:58.731Z,99259.53
2023-06-19T07:18:00.439Z,99251.03
2023-06-19T07:19:02.043Z,99251.88
2023-06-19T07:20:04.218Z,99256.78
2023-06-19T07:21:11.914Z,99258.59
2023-06-19T07:22:14.789Z,99253.66
2023-06-19T07:23:16.911Z,99255.81
2023-06-19T07:24:18.999Z,99248.53
2023-06-19T07:25:20.796Z,99250.34
2023-06-19T07:26:22.450Z,99259.38
2023-06-19T07:27:24.075Z,99250.66
2023-06-19T07:28:25.664Z,99251.44
2023-06-19T07:29:27.240Z,99263.75
2023-06-19T07:30:28.878Z,99252.63
2023-06-19T07:31:30.521Z,99258.50
2023-06-19T07:32:32.159Z,99258.13
2023-06-19T07:33:33.795Z,99256.94
2023-06-19T07:34:35.433Z,99254.47
2023-06-19T07:35:37.075Z,99252.63
2023-06-19T07:36:38.614Z,99253.66
2023-06-19T07:37:40.232Z,99251.88
2023-06-19T07:38:43.276Z,99258.38
2023-06-19T07:39:49.472Z,99255.16
2023-06-19T07:40:51.045Z,99255.47
2023-06-19T07:41:52.691Z,99251.00
2023-06-19T07:42:54.270Z,99258.09
2023-06-19T07:43:55.881Z,99253.66
2023-06-19T07:44:57.424Z,99253.25
2023-06-19T07:45:59.075Z,99252.09
2023-06-19T07:47:00.703Z,99253.31
2023-06-19T07:48:02.496Z,99250.91
2023-06-19T07:49:04.199Z,99255.97
2023-06-19T07:50:06.401Z,99255.97
2023-06-19T07:51:08.032Z,99254.25
2023-06-19T07:52:09.622Z,99246.31
2023-06-19T07:53:11.491Z,99255.25
2023-06-19T07:54:13.064Z,99249.06
2023-06-19T07:55:14.812Z,99247.22
2023-06-19T07:56:16.431Z,99247.13
2023-06-19T07:57:18.097Z,99245.41
2023-06-19T07:58:19.716Z,99250.88
2023-06-19T07:59:21.523Z,99247.13
2023-06-19T08:00:24.206Z,99252.31
2023-06-19T08:01:25.984Z,99259.06
2023-06-19T08:02:27.706Z,99257.06
2023-06-19T08:03:29.557Z,99255.22
2023-06-19T08:04:32.619Z,99251.84
2023-06-19T08:05:36.239Z,99249.16
2023-06-19T08:06:38.161Z,99257.34
2023-06-19T08:07:39.926Z,99258.31
2023-06-19T08:08:41.493Z,99255.84
2023-06-19T08:09:43.149Z,99255.25
2023-06-19T08:10:46.762Z,99262.38
2023-06-19T08:11:48.424Z,99256.16
2023-06-19T08:12:51.655Z,99255.13
2023-06-19T08:13:55.816Z,99257.91
2023-06-19T08:14:57.384Z,99258.88
2023-06-19T08:15:58.942Z,99256.81
2023-06-19T08:17:00.544Z,99263.16
2023-06-19T08:18:02.158Z,99258.59
2023-06-19T08:19:03.778Z,99253.34
2023-06-19T08:20:06.138Z,99258.38
2023-06-19T08:21:07.749Z,99254.25
2023-06-19T08:22:09.596Z,99255.22
2023-06-19T08:23:11.219Z,99256.28
2023-06-19T08:24:12.833Z,99249.41
2023-06-19T08:25:14.460Z,99250.69
2023-06-19T08:26:16.042Z,99256.25
2023-06-19T08:27:17.677Z,99254.16
2023-06-19T08:28:19.237Z,99252.06
2023-06-19T08:29:21.108Z,99249.53
2023-06-19T08:30:22.902Z,99253.16
2023-06-19T08:31:24.750Z,99251.66
2023-06-19T08:32:26.373Z,99252.59
2023-06-19T08:33:28.023Z,99248.53
2023-06-19T08:34:29.737Z,99259.59
2023-06-19T08:35:31.344Z,99248.47
2023-06-19T08:36:33.803Z,99255.41
2023-06-19T08:37:35.414Z,99241.00
2023-06-19T08:38:36.986Z,99248.03
2023-06-19T08:39:38.540Z,99254.81
2023-06-19T08:40:43.110Z,99249.44
2023-06-19T08:41:44.755Z,99251.16
2023-06-19T08:42:46.337Z,99257.63
2023-06-19T08:43:48.092Z,99244.03
2023-06-19T08:44:50.282Z,99244.28
2023-06-19T08:46:11.531Z,99247.38
2023-06-19T08:47:13.204Z,99249.06
2023-06-19T08:48:15.143Z,99258.66
2023-06-19T08:49:16.824Z,99256.34
2023-06-19T08:50:20.422Z,99251.16
2023-06-19T08:51:22.060Z,99253.19
2023-06-19T08:52:23.662Z,99257.63
2023-06-19T08:53:25.295Z,99258.38
2023-06-19T08:54:26.884Z,99256.34
2023-06-19T08:55:28.441Z,99253.66
2023-06-19T08:56:30.361Z,99256.91
2023-06-19T08:57:42.091Z,99252.94
2023-06-19T08:58:44.107Z,99239.03
2023-06-19T08:59:52.326Z,99242.31
2023-06-19T09:00:53.922Z,99247.81
2023-06-19T09:01:56.142Z,99243.59
2023-06-19T09:03:12.368Z,99234.69
2023-06-19T09:04:15.396Z,99235.41
2023-06-19T09:05:18.685Z,99232.72
2023-06-19T09:06:20.885Z,99232.22
2023-06-19T09:07:22.678Z,99235.84
2023-06-19T09:08:24.351Z,99237.94
2023-06-19T09:09:29.005Z,99233.16
2023-06-19T09:10:30.628Z,99225.72
2023-06-19T09:11:32.263Z,99231.94
2023-06-19T09:12:33.858Z,99226.50
2023-06-19T09:13:37.835Z,99230.03
2023-06-19T09:14:40.240Z,99230.03
2023-06-19T09:15:41.963Z,99226.84
2023-06-19T09:16:43.572Z,99231.09
2023-06-19T09:17:45.180Z,99224.63
2023-06-19T09:18:53.218Z,99222.94
2023-06-19T09:19:57.056Z,99224.47
2023-06-19T09:20:59.222Z,99225.53
2023-06-19T09:22:05.611Z,99224.72
2023-06-19T09:23:07.240Z,99218.84
2023-06-19T09:24:09.474Z,99222.19
2023-06-19T09:25:12.163Z,99219.44
2023-06-19T09:26:16.361Z,99219.44
2023-06-19T09:27:20.056Z,99211.75
2023-06-19T09:28:23.554Z,99216.84
2023-06-19T09:29:27.158Z,99211.28
2023-06-19T09:30:28.769Z,99210.56
2023-06-19T09:31:34.884Z,99211.31
2023-06-19T09:32:36.470Z,99210.34
2023-06-19T09:33:38.850Z,99214.44
2023-06-19T09:34:40.512Z,99213.78
2023-06-19T09:35:42.179Z,99218.19
2023-06-19T09:36:46.596Z,99218.34
2023-06-19T09:37:48.408Z,99217.31
2023-06-19T09:38:51.867Z,99213.81
2023-06-19T09:39:55.642Z,99217.59
2023-06-19T09:41:01.043Z,99217.47
2023-06-19T09:42:03.645Z,99217.09
2023-06-19T09:43:08.000Z,99220.91
2023-06-19T09:44:11.595Z,99218.44
2023-06-19T09:45:14.141Z,99223.47
2023-06-19T09:46:17.902Z,99217.72
2023-06-19T09:47:25.773Z,99221.25
2023-06-19T09:48:33.226Z,99220.44
2023-06-19T09:49:36.508Z,99224.63
2023-06-19T09:50:40.394Z,99217.03
2023-06-19T09:51:42.963Z,99219.56
2023-06-19T09:52:45.311Z,99218.06
2023-06-19T09:53:48.591Z,99218.75
2023-06-19T09:54:54.613Z,99220.97
2023-06-19T09:55:56.184Z,99225.38
2023-06-19T09:56:59.463Z,99216.59
2023-06-19T09:58:02.852Z,99218.84
2023-06-19T09:59:05.549Z,99216.72
2023-06-19T10:00:10.609Z,99215.72
2023-06-19T10:01:15.173Z,99213.59
2023-06-19T10:02:18.292Z,99222.97
2023-06-19T10:03:20.185Z,99213.44
2023-06-19T10:04:21.998Z,99224.47
2023-06-19T10:05:31.305Z,99216.13
2023-06-19T10:06:33.167Z,99213.75
2023-06-19T10:07:36.558Z,99216.47
2023-06-19T10:08:42.996Z,99214.84
2023-06-19T10:09:56.849Z,99217.03
2023-06-19T10:10:58.642Z,99214.84
2023-06-19T10:12:00.555Z,99215.41
2023-06-19T10:13:16.199Z,99208.78
2023-06-19T10:14:22.322Z,99209.69
2023-06-19T10:15:29.334Z,99210.59
2023-06-19T10:16:32.991Z,99207.94
2023-06-19T10:17:34.806Z,99205.78
2023-06-19T10:18:46.788Z,99206.91
2023-06-19T10:19:51.911Z,99211.53
2023-06-19T10:20:55.613Z,99210.28
2023-06-19T10:21:57.963Z,99208.38
2023-06-19T10:23:03.866Z,99204.41
2023-06-19T10:24:06.909Z,99210.09
2023-06-19T10:25:08.754Z,99207.63
2023-06-19T10:26:16.589Z,99220.81
2023-06-19T10:27:22.843Z,99203.78
2023-06-19T10:28:34.399Z,99210.38
2023-06-19T10:29:40.894Z,99209.59
2023-06-19T10:30:44.839Z,99212.06
2023-06-19T10:31:46.521Z,99209.38
2023-06-19T10:32:49.596Z,99211.22
2023-06-19T10:33:51.288Z,99207.41
2023-06-19T10:34:52.919Z,99211.34
2023-06-19T10:35:55.423Z,99211.97
2023-06-19T10:36:58.197Z,99207.66
2023-06-19T10:37:59.825Z,99207.38
2023-06-19T10:39:01.400Z,99205.94
2023-06-19T10:40:03.280Z,99203.50
2023-06-19T10:41:04.891Z,99204.94
2023-06-19T10:42:08.341Z,99202.59
2023-06-19T10:43:09.928Z,99200.16
2023-06-19T10:44:11.651Z,99201.88
2023-06-19T10:45:15.239Z,99197.84
2023-06-19T10:46:16.872Z,99207.34
2023-06-19T10:47:18.542Z,99210.13
2023-06-19T10:48:24.637Z,99198.50
2023-06-19T10:49:26.255Z,99205.56
2023-06-19T10:50:28.471Z,99202.41
2023-06-19T10:51:30.132Z,99205.66
2023-06-19T10:52:32.168Z,99197.28
2023-06-19T10:53:34.345Z,99203.19
2023-06-19T10:54:35.907Z,99202.69
2023-06-19T10:55:37.476Z,99202.75
2023-06-19T10:56:39.104Z,99206.56
2023-06-19T10:57:46.994Z,99199.56
2023-06-19T10:58:48.764Z,99199.84
2023-06-19T10:59:52.292Z,99203.34
2023-06-19T11:00:54.244Z,99202.31
2023-06-19T11:01:55.937Z,99203.41
2023-06-19T11:02:59.098Z,99202.38
2023-06-19T11:04:03.451Z,99201.03
2023-06-19T11:05:05.601Z,99206.72
2023-06-19T11:06:07.271Z,99192.00
2023-06-19T11:07:09.185Z,99190.06
2023-06-19T11:08:10.953Z,99189.81
2023-06-19T11:09:14.333Z,99186.84
2023-06-19T11:10:21.310Z,99191.50
2023-06-19T11:11:23.456Z,99185.25
2023-06-19T11:12:25.187Z,99193.16
2023-06-19T11:13:26.825Z,99190.72
2023-06-19T11:14:30.744Z,99189.59
2023-06-19T11:15:35.306Z,99184.47
2023-06-19T11:16:42.285Z,99187.09
2023-06-19T11:17:44.093Z,99183.84
2023-06-19T11:18:45.841Z,99185.53
2023-06-19T11:19:47.489Z,99185.56
2023-06-19T11:20:50.615Z,99188.84
2023-06-19T11:21:53.349Z,99180.16
2023-06-19T11:23:01.886Z,99185.88
2023-06-19T11:24:03.994Z,99182.06
2023-06-19T11:25:06.432Z,99190.22
2023-06-19T11:26:08.003Z,99188.59
2023-06-19T11:27:18.158Z,99189.66
2023-06-19T11:28:19.776Z,99189.41
2023-06-19T11:29:24.362Z,99184.50
2023-06-19T11:30:32.582Z,99188.03
2023-06-19T11:31:34.574Z,99189.94
2023-06-19T11:32:38.601Z,99189.41
2023-06-19T11:33:40.218Z,99191.56
2023-06-19T11:34:42.263Z,99189.41
2023-06-19T11:35:48.851Z,99186.97
2023-06-19T11:36:50.441Z,99182.91
2023-06-19T11:37:52.641Z,99178.00
2023-06-19T11:38:54.512Z,99181.81
2023-06-19T11:39:58.005Z,99184.22
2023-06-19T11:40:59.657Z,99177.44
2023-06-19T11:42:01.211Z,99177.47
2023-06-19T11:43:03.008Z,99180.44
2023-06-19T11:44:10.417Z,99177.19
2023-06-19T11:45:12.896Z,99182.06
2023-06-19T11:46:14.495Z,99171.19
2023-06-19T11:47:19.584Z,99170.66
2023-06-19T11:48:26.133Z,99171.53
2023-06-19T11:49:28.550Z,99172.06
2023-06-19T11:50:31.420Z,99174.22
2023-06-19T11:51:33.307Z,99176.91
2023-06-19T11:52:34.903Z,99167.41
2023-06-19T11:53:36.930Z,99166.06
2023-06-19T11:54:38.486Z,99165.53
2023-06-19T11:55:40.162Z,99174.19
2023-06-19T11:56:42.028Z,99165.25
2023-06-19T11:57:43.618Z,99173.66
2023-06-19T11:58:45.205Z,99169.84
2023-06-19T11:59:46.797Z,99169.31
2023-06-19T12:00:48.901Z,99162.25
2023-06-19T12:01:50.465Z,99167.13
2023-06-19T12:02:52.099Z,99169.84
2023-06-19T12:03:53.891Z,99164.94
2023-06-19T12:04:55.652Z,99165.75
2023-06-19T12:05:57.338Z,99169.00
2023-06-19T12:06:59.157Z,99163.28
2023-06-19T12:08:00.821Z,99166.00
2023-06-19T12:09:02.603Z,99158.34
2023-06-19T12:10:05.299Z,99171.97
2023-06-19T12:11:06.935Z,99159.75
2023-06-19T12:12:09.067Z,99169.78
2023-06-19T12:13:10.680Z,99167.38
2023-06-19T12:14:12.325Z,99163.84
2023-06-19T12:15:13.996Z,99165.75
2023-06-19T12:16:16.126Z,99162.25
2023-06-19T12:17:17.791Z,99163.63